sensor_id;sensor_type;location;lat;lon;timestamp;pressure;altitude;pressure_sealevel;temperature;humidity
36092;BME280;22147;52.388;13.390;2023-06-22T00:01:40;101284.72;;;17.48;100.00
36092;BME280;22147;52.388;13.390;2023-06-22T00:04:09;101284.28;;;17.46;100.00
36092;BME280;22147;52.388;13.390;2023-06-22T00:06:37;101285.78;;;17.44;100.00
36092;BME280;22147;52.388;13.390;2023-06-22T00:09:06;101282.53;;;17.42;100.00
36092;BME280;22147;52.388;13.390;2023-06-22T00:11:34;101296.09;;;17.40;100.00
36092;BME280;22147;52.388;13.390;2023-06-22T00:14:04;101288.88;;;17.39;100.00
36092;BME280;22147;52.388;13.390;2023-06-22T00:16:34;101285.97;;;17.35;100.00
36092;BME280;22147;52.388;13.390;2023-06-22T00:19:03;101294.31;;;17.32;100.00
36092;BME280;22147;52.388;13.390;2023-06-22T00:21:31;101297.81;;;17.28;100.00
36092;BME280;22147;52.388;13.390;2023-06-22T00:23:59;101299.81;;;17.28;100.00
36092;BME280;22147;52.388;13.390;2023-06-22T00:26:29;101305.78;;;17.26;100.00
36092;BME280;22147;52.388;13.390;2023-06-22T00:29:00;101310.59;;;17.26;100.00
36092;BME280;22147;52.388;13.390;2023-06-22T00:31:30;101320.19;;;17.25;100.00
36092;BME280;22147;52.388;13.390;2023-06-22T00:34:00;101309.69;;;17.22;100.00
36092;BME280;22147;52.388;13.390;2023-06-22T00:36:31;101316.91;;;17.23;100.00
36092;BME280;22147;52.388;13.390;2023-06-22T00:39:01;101320.56;;;17.23;100.00
36092;BME280;22147;52.388;13.390;2023-06-22T00:41:32;101322.19;;;17.24;100.00
36092;BME280;22147;52.388;13.390;2023-06-22T00:44:02;101315.75;;;17.24;100.00
36092;BME280;22147;52.388;13.390;2023-06-22T00:46:33;101305.34;;;17.24;100.00
36092;BME280;22147;52.388;13.390;2023-06-22T00:49:04;101310.94;;;17.24;100.00
36092;BME280;22147;52.388;13.390;2023-06-22T00:51:37;101315.75;;;17.24;100.00
36092;BME280;22147;52.388;13.390;2023-06-22T00:54:08;101303.78;;;17.27;100.00
36092;BME280;22147;52.388;13.390;2023-06-22T00:56:42;101312.66;;;17.29;100.00
36092;BME280;22147;52.388;13.390;2023-06-22T00:59:13;101322.75;;;17.30;100.00
36092;BME280;22147;52.388;13.390;2023-06-22T01:01:47;101322.84;;;17.34;100.00
36092;BME280;22147;52.388;13.390;2023-06-22T01:04:18;101330.19;;;17.38;100.00
36092;BME280;22147;52.388;13.390;2023-06-22T01:07:25;101321.81;;;17.42;100.00
36092;BME280;22147;52.388;13.390;2023-06-22T01:10:27;101322.75;;;17.46;100.00
36092;BME280;22147;52.388;13.390;2023-06-22T01:13:29;101326.47;;;17.50;100.00
36092;BME280;22147;52.388;13.390;2023-06-22T01:16:24;101325.31;;;17.51;100.00
36092;BME280;22147;52.388;13.390;2023-06-22T01:19:08;101329.38;;;17.54;100.00
36092;BME280;22147;52.388;13.390;2023-06-22T01:22:01;101334.19;;;17.53;100.00
36092;BME280;22147;52.388;13.390;2023-06-22T01:31:23;101342.16;;;17.67;100.00
36092;BME280;22147;52.388;13.390;2023-06-22T01:34:03;101338.28;;;17.72;100.00
36092;BME280;22147;52.388;13.390;2023-06-22T01:36:35;101344.31;;;17.74;100.00
36092;BME280;22147;52.388;13.390;2023-06-22T01:39:07;101345.16;;;17.74;100.00
36092;BME280;22147;52.388;13.390;2023-06-22T01:41:40;101351.59;;;17.75;100.00
36092;BME280;22147;52.388;13.390;2023-06-22T01:44:12;101353.19;;;17.76;100.00
36092;BME280;22147;52.388;13.390;2023-06-22T01:46:42;101350.03;;;17.77;100.00
36092;BME280;22147;52.388;13.390;2023-06-22T01:49:12;101345.22;;;17.78;100.00
36092;BME280;22147;52.388;13.390;2023-06-22T01:51:42;101350.13;;;17.81;100.00
36092;BME280;22147;52.388;13.390;2023-06-22T01:54:13;101347.00;;;17.82;100.00
36092;BME280;22147;52.388;13.390;2023-06-22T01:56:43;101352.22;;;17.84;100.00
36092;BME280;22147;52.388;13.390;2023-06-22T01:59:31;101351.06;;;17.85;100.00
36092;BME280;22147;52.388;13.390;2023-06-22T02:02:09;101355.50;;;17.86;100.00
36092;BME280;22147;52.388;13.390;2023-06-22T02:04:48;101359.78;;;17.96;100.00
36092;BME280;22147;52.388;13.390;2023-06-22T02:07:30;101352.59;;;17.98;100.00
36092;BME280;22147;52.388;13.390;2023-06-22T02:10:07;101356.31;;;18.02;100.00
36092;BME280;22147;52.388;13.390;2023-06-22T02:12:44;101369.56;;;18.02;100.00
36092;BME280;22147;52.388;13.390;2023-06-22T02:15:14;101364.38;;;18.04;100.00
36092;BME280;22147;52.388;13.390;2023-06-22T02:17:45;101363.59;;;18.03;100.00
36092;BME280;22147;52.388;13.390;2023-06-22T02:20:15;101359.47;;;18.01;100.00
36092;BME280;22147;52.388;13.390;2023-06-22T02:22:45;101366.66;;;17.98;100.00
36092;BME280;22147;52.388;13.390;2023-06-22T02:25:15;101373.81;;;17.96;100.00
36092;BME280;22147;52.388;13.390;2023-06-22T02:27:45;101380.97;;;17.93;100.00
36092;BME280;22147;52.388;13.390;2023-06-22T02:30:16;101371.38;;;17.94;100.00
36092;BME280;22147;52.388;13.390;2023-06-22T02:32:45;101367.75;;;17.94;100.00
36092;BME280;22147;52.388;13.390;2023-06-22T02:35:15;101363.75;;;17.95;100.00
36092;BME280;22147;52.388;13.390;2023-06-22T02:37:45;101364.13;;;17.93;100.00
36092;BME280;22147;52.388;13.390;2023-06-22T02:40:16;101368.91;;;17.93;100.00
36092;BME280;22147;52.388;13.390;2023-06-22T02:42:46;101371.00;;;17.96;100.00
36092;BME280;22147;52.388;13.390;2023-06-22T02:45:16;101364.66;;;17.99;100.00
36092;BME280;22147;52.388;13.390;2023-06-22T02:47:46;101371.19;;;18.03;100.00
36092;BME280;22147;52.388;13.390;2023-06-22T02:50:17;101368.81;;;18.05;100.00
36092;BME280;22147;52.388;13.390;2023-06-22T02:52:47;101375.34;;;18.09;100.00
36092;BME280;22147;52.388;13.390;2023-06-22T02:55:17;101372.19;;;18.10;100.00
36092;BME280;22147;52.388;13.390;2023-06-22T02:57:48;101373.44;;;18.13;100.00
36092;BME280;22147;52.388;13.390;2023-06-22T03:00:20;101374.69;;;18.16;100.00
36092;BME280;22147;52.388;13.390;2023-06-22T03:02:51;101378.81;;;18.18;100.00
36092;BME280;22147;52.388;13.390;2023-06-22T03:05:21;101368.38;;;18.19;100.00
36092;BME280;22147;52.388;13.390;2023-06-22T03:07:51;101373.63;;;18.20;100.00
36092;BME280;22147;52.388;13.390;2023-06-22T03:10:21;101369.97;;;18.20;100.00
36092;BME280;22147;52.388;13.390;2023-06-22T03:12:51;101372.34;;;18.18;100.00
36092;BME280;22147;52.388;13.390;2023-06-22T03:15:21;101366.66;;;18.14;100.00
36092;BME280;22147;52.388;13.390;2023-06-22T03:17:52;101365.38;;;18.11;100.00
36092;BME280;22147;52.388;13.390;2023-06-22T03:20:22;101361.75;;;18.11;100.00
36092;BME280;22147;52.388;13.390;2023-06-22T03:22:53;101356.94;;;18.11;100.00
36092;BME280;22147;52.388;13.390;2023-06-22T03:25:23;101358.03;;;18.07;100.00
36092;BME280;22147;52.388;13.390;2023-06-22T03:27:53;101366.81;;;18.05;100.00
36092;BME280;22147;52.388;13.390;2023-06-22T03:30:23;101365.28;;;18.08;100.00
36092;BME280;22147;52.388;13.390;2023-06-22T03:32:53;101365.28;;;18.08;100.00
36092;BME280;22147;52.388;13.390;2023-06-22T03:35:23;101370.00;;;18.04;100.00
36092;BME280;22147;52.388;13.390;2023-06-22T03:37:53;101372.81;;;18.04;100.00
36092;BME280;22147;52.388;13.390;2023-06-22T03:40:23;101376.09;;;18.06;100.00
36092;BME280;22147;52.388;13.390;2023-06-22T03:42:53;101382.50;;;18.06;100.00
36092;BME280;22147;52.388;13.390;2023-06-22T03:45:23;101376.09;;;18.06;100.00
36092;BME280;22147;52.388;13.390;2023-06-22T03:47:53;101370.47;;;18.06;100.00
36092;BME280;22147;52.388;13.390;2023-06-22T03:50:23;101363.28;;;18.08;100.00
36092;BME280;22147;52.388;13.390;2023-06-22T03:52:53;101365.75;;;18.10;100.00
36092;BME280;22147;52.388;13.390;2023-06-22T03:55:23;101371.88;;;18.16;100.00
36092;BME280;22147;52.388;13.390;2023-06-22T03:57:53;101389.13;;;18.14;100.00
36092;BME280;22147;52.388;13.390;2023-06-22T04:00:24;101379.25;;;18.20;100.00
36092;BME280;22147;52.388;13.390;2023-06-22T04:02:54;101388.09;;;18.22;100.00
36092;BME280;22147;52.388;13.390;2023-06-22T04:05:24;101389.31;;;18.21;100.00
36092;BME280;22147;52.388;13.390;2023-06-22T04:07:54;101391.38;;;18.24;100.00
36092;BME280;22147;52.388;13.390;2023-06-22T04:10:24;101387.50;;;18.29;100.00
36092;BME280;22147;52.388;13.390;2023-06-22T04:12:54;101379.06;;;18.29;100.00
36092;BME280;22147;52.388;13.390;2023-06-22T04:15:24;101387.19;;;18.34;100.00
36092;BME280;22147;52.388;13.390;2023-06-22T04:17:56;101378.56;;;18.43;100.00
36092;BME280;22147;52.388;13.390;2023-06-22T04:20:25;101388.69;;;18.47;100.00
36092;BME280;22147;52.388;13.390;2023-06-22T04:22:58;101389.25;;;18.53;100.00
36092;BME280;22147;52.388;13.390;2023-06-22T04:25:28;101393.31;;;18.56;100.00
36092;BME280;22147;52.388;13.390;2023-06-22T04:27:58;101395.84;;;18.61;100.00
36092;BME280;22147;52.388;13.390;2023-06-22T04:30:28;101398.38;;;18.66;100.00
36092;BME280;22147;52.388;13.390;2023-06-22T04:33:01;101403.28;;;18.69;100.00
36092;BME280;22147;52.388;13.390;2023-06-22T04:35:31;101406.16;;;18.72;100.00
36092;BME280;22147;52.388;13.390;2023-06-22T04:38:01;101406.72;;;18.78;100.00
36092;BME280;22147;52.388;13.390;2023-06-22T04:40:34;101419.75;;;18.86;100.00
36092;BME280;22147;52.388;13.390;2023-06-22T04:43:03;101422.38;;;18.95;100.00
36092;BME280;22147;52.388;13.390;2023-06-22T04:45:36;101418.13;;;19.05;100.00
36092;BME280;22147;52.388;13.390;2023-06-22T04:48:08;101417.72;;;19.22;100.00
36092;BME280;22147;52.388;13.390;2023-06-22T04:50:39;101414.00;;;19.18;100.00
36092;BME280;22147;52.388;13.390;2023-06-22T04:53:09;101418.22;;;19.28;100.00
36092;BME280;22147;52.388;13.390;2023-06-22T04:55:42;101424.38;;;19.33;100.00
36092;BME280;22147;52.388;13.390;2023-06-22T04:58:15;101414.00;;;19.38;100.00
36092;BME280;22147;52.388;13.390;2023-06-22T05:00:45;101424.66;;;19.48;100.00
36092;BME280;22147;52.388;13.390;2023-06-22T05:03:17;101422.72;;;19.52;100.00
36092;BME280;22147;52.388;13.390;2023-06-22T05:05:49;101416.66;;;19.50;100.00
36092;BME280;22147;52.388;13.390;2023-06-22T05:08:19;101416.66;;;19.50;100.00
36092;BME280;22147;52.388;13.390;2023-06-22T05:10:49;101406.50;;;19.45;100.00
36092;BME280;22147;52.388;13.390;2023-06-22T05:13:34;101408.94;;;19.47;100.00
36092;BME280;22147;52.388;13.390;2023-06-22T05:16:04;101406.19;;;19.50;100.00
36092;BME280;22147;52.388;13.390;2023-06-22T05:18:35;101409.53;;;19.56;100.00
36092;BME280;22147;52.388;13.390;2023-06-22T05:21:06;101415.06;;;19.72;100.00
36092;BME280;22147;52.388;13.390;2023-06-22T05:23:36;101421.59;;;19.99;100.00
36092;BME280;22147;52.388;13.390;2023-06-22T05:26:06;101424.09;;;20.27;100.00
36092;BME280;22147;52.388;13.390;2023-06-22T05:28:39;101420.69;;;20.41;100.00
36092;BME280;22147;52.388;13.390;2023-06-22T05:31:09;101413.16;;;20.49;100.00
36092;BME280;22147;52.388;13.390;2023-06-22T05:33:41;101420.25;;;20.39;100.00
36092;BME280;22147;52.388;13.390;2023-06-22T05:36:10;101417.97;;;20.48;100.00
36092;BME280;22147;52.388;13.390;2023-06-22T05:38:41;101417.25;;;20.55;100.00
36092;BME280;22147;52.388;13.390;2023-06-22T05:41:11;101429.59;;;20.43;100.00
36092;BME280;22147;52.388;13.390;2023-06-22T05:43:41;101431.91;;;20.38;100.00
36092;BME280;22147;52.388;13.390;2023-06-22T05:46:11;101432.34;;;20.40;100.00
36092;BME280;22147;52.388;13.390;2023-06-22T05:48:42;101436.19;;;20.54;100.00
36092;BME280;22147;52.388;13.390;2023-06-22T05:51:12;101441.13;;;20.58;100.00
36092;BME280;22147;52.388;13.390;2023-06-22T05:53:42;101439.72;;;20.48;100.00
36092;BME280;22147;52.388;13.390;2023-06-22T05:56:13;101440.22;;;20.53;100.00
36092;BME280;22147;52.388;13.390;2023-06-22T05:58:43;101436.19;;;20.54;100.00
36092;BME280;22147;52.388;13.390;2023-06-22T06:01:10;101432.00;;;20.68;100.00
36092;BME280;22147;52.388;13.390;2023-06-22T06:03:39;101433.72;;;20.76;100.00
36092;BME280;22147;52.388;13.390;2023-06-22T06:06:10;101431.47;;;20.89;100.00
36092;BME280;22147;52.388;13.390;2023-06-22T06:08:39;101429.41;;;21.12;100.00
36092;BME280;22147;52.388;13.390;2023-06-22T06:11:09;101431.06;;;21.47;100.00
36092;BME280;22147;52.388;13.390;2023-06-22T06:13:38;101436.63;;;21.78;100.00
36092;BME280;22147;52.388;13.390;2023-06-22T06:16:08;101433.50;;;21.90;100.00
36092;BME280;22147;52.388;13.390;2023-06-22T06:18:36;101433.41;;;21.79;100.00
36092;BME280;22147;52.388;13.390;2023-06-22T06:21:05;101435.72;;;22.11;100.00
36092;BME280;22147;52.388;13.390;2023-06-22T06:23:33;101429.94;;;22.38;99.92
36092;BME280;22147;52.388;13.390;2023-06-22T06:26:03;101440.03;;;22.39;96.91
36092;BME280;22147;52.388;13.390;2023-06-22T06:28:35;101441.59;;;22.29;94.82
36092;BME280;22147;52.388;13.390;2023-06-22T06:31:05;101444.00;;;22.30;96.96
36092;BME280;22147;52.388;13.390;2023-06-22T06:33:37;101448.94;;;22.41;96.27
36092;BME280;22147;52.388;13.390;2023-06-22T06:36:07;101446.31;;;22.69;97.50
36092;BME280;22147;52.388;13.390;2023-06-22T06:38:36;101444.78;;;22.83;95.22
36092;BME280;22147;52.388;13.390;2023-06-22T06:41:04;101432.66;;;22.86;96.17
36092;BME280;22147;52.388;13.390;2023-06-22T06:43:34;101429.34;;;22.69;92.20
36092;BME280;22147;52.388;13.390;2023-06-22T06:46:04;101427.72;;;22.72;94.51
36092;BME280;22147;52.388;13.390;2023-06-22T06:48:34;101427.16;;;23.14;95.39
36092;BME280;22147;52.388;13.390;2023-06-22T06:51:05;101437.88;;;23.71;91.55
36092;BME280;22147;52.388;13.390;2023-06-22T06:53:37;101433.91;;;24.01;85.89
36092;BME280;22147;52.388;13.390;2023-06-22T06:56:07;101432.69;;;24.42;86.23
36092;BME280;22147;52.388;13.390;2023-06-22T06:58:42;101433.09;;;24.65;77.67
36092;BME280;22147;52.388;13.390;2023-06-22T07:01:12;101422.06;;;24.89;76.83
36092;BME280;22147;52.388;13.390;2023-06-22T07:03:42;101422.13;;;24.71;73.50
36092;BME280;22147;52.388;13.390;2023-06-22T07:06:13;101415.22;;;24.75;74.52
36092;BME280;22147;52.388;13.390;2023-06-22T07:08:42;101407.09;;;24.77;75.33
36092;BME280;22147;52.388;13.390;2023-06-22T07:11:12;101402.09;;;25.17;77.27
36092;BME280;22147;52.388;13.390;2023-06-22T07:13:42;101392.28;;;25.33;75.72
36092;BME280;22147;52.388;13.390;2023-06-22T07:16:13;101394.38;;;25.14;70.80
36092;BME280;22147;52.388;13.390;2023-06-22T07:18:41;101396.47;;;25.07;71.80
36092;BME280;22147;52.388;13.390;2023-06-22T07:21:09;101399.56;;;25.41;70.82
36092;BME280;22147;52.388;13.390;2023-06-22T07:23:37;101389.09;;;25.16;71.54
36092;BME280;22147;52.388;13.390;2023-06-22T07:26:09;101389.97;;;25.03;69.26
36092;BME280;22147;52.388;13.390;2023-06-22T07:28:37;101384.88;;;25.50;69.21
36092;BME280;22147;52.388;13.390;2023-06-22T07:31:09;101379.31;;;25.32;71.12
36092;BME280;22147;52.388;13.390;2023-06-22T07:33:38;101380.16;;;25.14;69.60
36092;BME280;22147;52.388;13.390;2023-06-22T07:36:07;101387.63;;;24.76;73.55
36092;BME280;22147;52.388;13.390;2023-06-22T07:38:35;101397.38;;;24.71;74.18
36092;BME280;22147;52.388;13.390;2023-06-22T07:41:03;101392.16;;;24.55;69.91
36092;BME280;22147;52.388;13.390;2023-06-22T07:43:35;101391.34;;;24.58;68.71
36092;BME280;22147;52.388;13.390;2023-06-22T07:46:04;101391.34;;;24.37;69.07
36092;BME280;22147;52.388;13.390;2023-06-22T07:48:32;101398.22;;;24.36;69.17
36092;BME280;22147;52.388;13.390;2023-06-22T07:51:01;101397.84;;;24.30;70.78
36092;BME280;22147;52.388;13.390;2023-06-22T07:53:29;101403.53;;;24.30;69.78
36092;BME280;22147;52.388;13.390;2023-06-22T07:55:58;101401.09;;;24.54;68.62
36092;BME280;22147;52.388;13.390;2023-06-22T07:58:26;101397.84;;;24.27;64.95
36092;BME280;22147;52.388;13.390;2023-06-22T08:00:54;101401.91;;;23.90;65.35
36092;BME280;22147;52.388;13.390;2023-06-22T08:03:23;101406.75;;;24.00;66.10
36092;BME280;22147;52.388;13.390;2023-06-22T08:05:51;101399.88;;;23.97;66.62
36092;BME280;22147;52.388;13.390;2023-06-22T08:08:18;101398.25;;;24.07;65.98
36092;BME280;22147;52.388;13.390;2023-06-22T08:10:49;101400.66;;;24.34;67.72
36092;BME280;22147;52.388;13.390;2023-06-22T08:13:19;101400.28;;;24.53;67.30
36092;BME280;22147;52.388;13.390;2023-06-22T08:15:49;101395.81;;;24.60;64.56
36092;BME280;22147;52.388;13.390;2023-06-22T08:18:19;101395.75;;;24.74;63.94
36092;BME280;22147;52.388;13.390;2023-06-22T08:20:48;101395.81;;;24.56;62.44
36092;BME280;22147;52.388;13.390;2023-06-22T08:23:17;101386.84;;;24.65;62.99
36092;BME280;22147;52.388;13.390;2023-06-22T08:25:45;101384.81;;;24.62;61.88
36092;BME280;22147;52.388;13.390;2023-06-22T08:28:12;101385.25;;;24.56;62.78
36092;BME280;22147;52.388;13.390;2023-06-22T08:30:43;101391.75;;;24.53;60.78
36092;BME280;22147;52.388;13.390;2023-06-22T08:33:11;101391.34;;;24.58;63.10
36092;BME280;22147;52.388;13.390;2023-06-22T08:35:54;101391.34;;;24.62;58.93
36092;BME280;22147;52.388;13.390;2023-06-22T08:38:23;101394.97;;;24.59;59.83
36092;BME280;22147;52.388;13.390;2023-06-22T08:40:52;101391.69;;;24.68;59.54
36092;BME280;22147;52.388;13.390;2023-06-22T08:43:21;101389.22;;;24.81;59.36
36092;BME280;22147;52.388;13.390;2023-06-22T08:45:50;101387.53;;;24.97;62.08
36092;BME280;22147;52.388;13.390;2023-06-22T08:48:18;101384.75;;;24.87;60.27
36092;BME280;22147;52.388;13.390;2023-06-22T08:50:48;101388.03;;;24.85;59.09
36092;BME280;22147;52.388;13.390;2023-06-22T08:53:17;101382.25;;;24.99;59.54
36092;BME280;22147;52.388;13.390;2023-06-22T08:55:46;101392.31;;;25.18;59.48
36092;BME280;22147;52.388;13.390;2023-06-22T08:58:16;101393.03;;;25.48;59.65
36092;BME280;22147;52.388;13.390;2023-06-22T09:00:48;101393.59;;;25.91;59.44
36092;BME280;22147;52.388;13.390;2023-06-22T09:03:16;101393.91;;;26.00;55.54
36092;BME280;22147;52.388;13.390;2023-06-22T09:05:45;101385.19;;;25.70;57.19
36092;BME280;22147;52.388;13.390;2023-06-22T09:08:13;101379.09;;;25.68;55.95
36092;BME280;22147;52.388;13.390;2023-06-22T09:10:41;101374.91;;;25.83;58.42
36092;BME280;22147;52.388;13.390;2023-06-22T09:13:10;101376.50;;;25.91;56.48
36092;BME280;22147;52.388;13.390;2023-06-22T09:15:38;101369.69;;;25.74;56.71
36092;BME280;22147;52.388;13.390;2023-06-22T09:18:10;101380.50;;;25.38;56.15
36092;BME280;22147;52.388;13.390;2023-06-22T09:20:41;101367.97;;;25.25;58.07
36092;BME280;22147;52.388;13.390;2023-06-22T09:23:12;101371.91;;;25.49;57.91
36092;BME280;22147;52.388;13.390;2023-06-22T09:25:42;101371.69;;;25.77;57.49
36092;BME280;22147;52.388;13.390;2023-06-22T09:28:13;101370.81;;;25.88;54.78
36092;BME280;22147;52.388;13.390;2023-06-22T09:30:44;101375.63;;;25.98;56.91
36092;BME280;22147;52.388;13.390;2023-06-22T09:33:15;101371.50;;;26.06;54.60
36092;BME280;22147;52.388;13.390;2023-06-22T09:35:46;101375.97;;;26.07;54.02
36092;BME280;22147;52.388;13.390;2023-06-22T09:38:17;101365.53;;;25.93;53.75
36092;BME280;22147;52.388;13.390;2023-06-22T09:40:47;101370.25;;;25.55;53.21
36092;BME280;22147;52.388;13.390;2023-06-22T09:43:17;101373.25;;;25.30;54.76
36092;BME280;22147;52.388;13.390;2023-06-22T09:45:47;101371.53;;;25.47;54.29
36092;BME280;22147;52.388;13.390;2023-06-22T09:48:17;101364.72;;;25.30;53.89
36092;BME280;22147;52.388;13.390;2023-06-22T09:50:46;101367.84;;;25.46;54.46
36092;BME280;22147;52.388;13.390;2023-06-22T09:53:16;101362.13;;;25.57;53.22
36092;BME280;22147;52.388;13.390;2023-06-22T09:55:47;101366.56;;;25.58;54.48
36092;BME280;22147;52.388;13.390;2023-06-22T09:58:17;101361.25;;;25.64;54.22
36092;BME280;22147;52.388;13.390;2023-06-22T10:00:48;101365.28;;;25.70;55.53
36092;BME280;22147;52.388;13.390;2023-06-22T10:03:18;101360.88;;;25.54;52.98
36092;BME280;22147;52.388;13.390;2023-06-22T10:05:47;101354.63;;;25.77;53.14
36092;BME280;22147;52.388;13.390;2023-06-22T10:08:18;101357.78;;;25.94;53.02
36092;BME280;22147;52.388;13.390;2023-06-22T10:10:48;101361.84;;;25.93;52.33
36092;BME280;22147;52.388;13.390;2023-06-22T10:13:21;101359.91;;;25.79;54.11
36092;BME280;22147;52.388;13.390;2023-06-22T10:15:51;101361.97;;;25.78;54.78
36092;BME280;22147;52.388;13.390;2023-06-22T10:18:22;101361.22;;;25.67;53.89
36092;BME280;22147;52.388;13.390;2023-06-22T10:20:53;101356.47;;;25.50;52.65
36092;BME280;22147;52.388;13.390;2023-06-22T10:23:23;101357.41;;;25.29;55.35
36092;BME280;22147;52.388;13.390;2023-06-22T10:26:24;101351.94;;;25.59;53.04
36092;BME280;22147;52.388;13.390;2023-06-22T10:28:57;101354.88;;;25.45;52.70
36092;BME280;22147;52.388;13.390;2023-06-22T10:31:43;101351.34;;;25.16;54.13
36092;BME280;22147;52.388;13.390;2023-06-22T10:34:12;101339.19;;;25.12;54.26
36092;BME280;22147;52.388;13.390;2023-06-22T10:36:40;101340.78;;;25.24;52.71
36092;BME280;22147;52.388;13.390;2023-06-22T10:39:08;101342.88;;;25.05;53.00
36092;BME280;22147;52.388;13.390;2023-06-22T10:41:37;101341.16;;;25.29;54.76
36092;BME280;22147;52.388;13.390;2023-06-22T10:44:06;101335.59;;;25.67;52.88
36092;BME280;22147;52.388;13.390;2023-06-22T10:46:34;101335.97;;;26.25;53.61
36092;BME280;22147;52.388;13.390;2023-06-22T10:49:05;101335.88;;;26.70;50.99
36092;BME280;22147;52.388;13.390;2023-06-22T10:51:33;101332.19;;;27.04;51.18
36092;BME280;22147;52.388;13.390;2023-06-22T10:54:02;101335.44;;;27.37;49.17
36092;BME280;22147;52.388;13.390;2023-06-22T10:56:34;101330.72;;;26.92;49.11
36092;BME280;22147;52.388;13.390;2023-06-22T10:59:02;101326.78;;;26.83;51.17
36092;BME280;22147;52.388;13.390;2023-06-22T11:01:30;101324.91;;;27.03;49.93
36092;BME280;22147;52.388;13.390;2023-06-22T11:04:05;101326.78;;;27.13;49.66
36092;BME280;22147;52.388;13.390;2023-06-22T11:06:35;101316.38;;;27.30;50.21
36092;BME280;22147;52.388;13.390;2023-06-22T11:09:06;101313.16;;;27.55;51.82
36092;BME280;22147;52.388;13.390;2023-06-22T11:11:40;101313.38;;;27.41;49.99
36092;BME280;22147;52.388;13.390;2023-06-22T11:14:09;101313.28;;;27.48;49.43
36092;BME280;22147;52.388;13.390;2023-06-22T11:16:37;101303.63;;;27.38;51.34
36092;BME280;22147;52.388;13.390;2023-06-22T11:19:06;101305.03;;;27.54;50.69
36092;BME280;22147;52.388;13.390;2023-06-22T11:21:34;101295.00;;;27.46;50.05
36092;BME280;22147;52.388;13.390;2023-06-22T11:24:03;101286.47;;;27.42;50.25
36092;BME280;22147;52.388;13.390;2023-06-22T11:26:31;101281.75;;;27.32;50.64
36092;BME280;22147;52.388;13.390;2023-06-22T11:29:00;101298.75;;;27.39;51.40
36092;BME280;22147;52.388;13.390;2023-06-22T11:31:28;101291.34;;;27.14;49.52
36092;BME280;22147;52.388;13.390;2023-06-22T11:33:56;101286.56;;;27.08;51.40
36092;BME280;22147;52.388;13.390;2023-06-22T11:36:26;101276.84;;;27.05;51.12
36092;BME280;22147;52.388;13.390;2023-06-22T11:38:53;101280.50;;;27.06;49.59
36092;BME280;22147;52.388;13.390;2023-06-22T11:41:22;101278.97;;;26.97;50.98
36092;BME280;22147;52.388;13.390;2023-06-22T11:43:50;101283.88;;;27.24;49.98
36092;BME280;22147;52.388;13.390;2023-06-22T11:46:19;101288.69;;;27.31;49.32
36092;BME280;22147;52.388;13.390;2023-06-22T11:48:47;101296.75;;;27.36;50.01
36092;BME280;22147;52.388;13.390;2023-06-22T11:51:16;101305.84;;;26.96;48.61
36092;BME280;22147;52.388;13.390;2023-06-22T11:53:44;101294.59;;;27.16;49.93
36092;BME280;22147;52.388;13.390;2023-06-22T11:56:13;101298.31;;;27.40;51.40
36092;BME280;22147;52.388;13.390;2023-06-22T11:58:41;101286.06;;;27.44;47.56
36092;BME280;22147;52.388;13.390;2023-06-22T12:01:09;101289.31;;;27.69;47.58
36092;BME280;22147;52.388;13.390;2023-06-22T12:03:38;101282.88;;;27.89;46.41
36092;BME280;22147;52.388;13.390;2023-06-22T12:06:06;101275.81;;;27.19;46.29
36092;BME280;22147;52.388;13.390;2023-06-22T12:08:35;101273.81;;;27.16;48.26
36092;BME280;22147;52.388;13.390;2023-06-22T12:11:06;101268.66;;;27.34;49.44
36092;BME280;22147;52.388;13.390;2023-06-22T12:13:37;101264.94;;;27.10;47.64
36092;BME280;22147;52.388;13.390;2023-06-22T12:16:07;101266.41;;;26.95;48.74
36092;BME280;22147;52.388;13.390;2023-06-22T12:18:37;101256.56;;;26.69;48.98
36092;BME280;22147;52.388;13.390;2023-06-22T12:21:07;101262.19;;;26.76;48.27
36092;BME280;22147;52.388;13.390;2023-06-22T12:23:38;101263.25;;;26.86;47.85
36092;BME280;22147;52.388;13.390;2023-06-22T12:26:08;101254.25;;;26.91;48.54
36092;BME280;22147;52.388;13.390;2023-06-22T12:28:38;101251.03;;;27.16;47.56
36092;BME280;22147;52.388;13.390;2023-06-22T12:31:09;101244.03;;;27.48;47.51
36092;BME280;22147;52.388;13.390;2023-06-22T12:33:37;101245.53;;;27.56;46.35
36092;BME280;22147;52.388;13.390;2023-06-22T12:36:05;101235.91;;;27.46;47.57
36092;BME280;22147;52.388;13.390;2023-06-22T12:38:34;101239.16;;;27.17;46.77
36092;BME280;22147;52.388;13.390;2023-06-22T12:41:02;101239.09;;;27.25;46.04
36092;BME280;22147;52.388;13.390;2023-06-22T12:43:31;101236.38;;;27.41;48.45
36092;BME280;22147;52.388;13.390;2023-06-22T12:46:00;101226.91;;;27.71;47.94
36092;BME280;22147;52.388;13.390;2023-06-22T12:48:29;101218.19;;;28.02;48.02
36092;BME280;22147;52.388;13.390;2023-06-22T12:50:57;101222.19;;;28.28;45.58
36092;BME280;22147;52.388;13.390;2023-06-22T12:53:26;101201.44;;;28.44;46.44
36092;BME280;22147;52.388;13.390;2023-06-22T12:55:54;101213.41;;;28.59;47.74
36092;BME280;22147;52.388;13.390;2023-06-22T12:58:23;101208.13;;;28.57;43.77
36092;BME280;22147;52.388;13.390;2023-06-22T13:00:51;101215.34;;;28.42;44.67